sensor_id;sensor_type;location;lat;lon;timestamp;pressure;altitude;pressure_sealevel;temperature;humidity
42603;BME280;28233;55.748;48.752;2023-02-12T00:01:00;99158.84;;;-6.43;86.42
42603;BME280;28233;55.748;48.752;2023-02-12T00:03:03;99157.88;;;-6.49;87.20
42603;BME280;28233;55.748;48.752;2023-02-12T00:05:06;99166.91;;;-6.50;86.21
42603;BME280;28233;55.748;48.752;2023-02-12T00:07:09;99166.72;;;-6.48;87.38
42603;BME280;28233;55.748;48.752;2023-02-12T00:09:12;99160.59;;;-6.55;86.66
42603;BME280;28233;55.748;48.752;2023-02-12T00:11:17;99163.13;;;-6.61;87.37
42603;BME280;28233;55.748;48.752;2023-02-12T00:13:20;99178.09;;;-6.60;87.35
42603;BME280;28233;55.748;48.752;2023-02-12T00:15:22;99163.31;;;-6.62;87.52
42603;BME280;28233;55.748;48.752;2023-02-12T00:17:25;99161.25;;;-6.60;88.05
42603;BME280;28233;55.748;48.752;2023-02-12T00:19:28;99148.91;;;-6.61;87.89
42603;BME280;28233;55.748;48.752;2023-02-12T00:21:31;99154.72;;;-6.64;87.80
42603;BME280;28233;55.748;48.752;2023-02-12T00:23:34;99143.88;;;-6.69;87.39
42603;BME280;28233;55.748;48.752;2023-02-12T00:25:40;99155.16;;;-6.67;87.69
42603;BME280;28233;55.748;48.752;2023-02-12T00:27:43;99146.22;;;-6.79;87.57
42603;BME280;28233;55.748;48.752;2023-02-12T00:29:46;99139.38;;;-6.75;87.21
42603;BME280;28233;55.748;48.752;2023-02-12T00:31:48;99153.13;;;-6.72;87.43
42603;BME280;28233;55.748;48.752;2023-02-12T00:33:51;99150.06;;;-6.75;88.07
42603;BME280;28233;55.748;48.752;2023-02-12T00:35:56;99148.22;;;-6.75;87.17
42603;BME280;28233;55.748;48.752;2023-02-12T00:37:59;99137.97;;;-6.78;87.65
42603;BME280;28233;55.748;48.752;2023-02-12T00:40:02;99144.13;;;-6.77;87.67
42603;BME280;28233;55.748;48.752;2023-02-12T00:42:06;99140.44;;;-6.76;87.82
42603;BME280;28233;55.748;48.752;2023-02-12T00:44:09;99142.44;;;-6.72;87.87
42603;BME280;28233;55.748;48.752;2023-02-12T00:46:11;99130.94;;;-6.72;87.31
42603;BME280;28233;55.748;48.752;2023-02-12T00:48:15;99137.53;;;-6.75;87.09
42603;BME280;28233;55.748;48.752;2023-02-12T00:50:17;99136.34;;;-6.79;87.52
42603;BME280;28233;55.748;48.752;2023-02-12T00:52:20;99127.94;;;-6.83;88.10
42603;BME280;28233;55.748;48.752;2023-02-12T00:54:23;99117.69;;;-6.86;87.70
42603;BME280;28233;55.748;48.752;2023-02-12T00:56:25;99121.78;;;-6.83;87.55
42603;BME280;28233;55.748;48.752;2023-02-12T00:58:28;99123.63;;;-6.84;87.67
42603;BME280;28233;55.748;48.752;2023-02-12T01:00:31;99121.38;;;-6.87;87.31
42603;BME280;28233;55.748;48.752;2023-02-12T01:02:33;99130.44;;;-6.88;87.57
42603;BME280;28233;55.748;48.752;2023-02-12T01:04:36;99114.41;;;-6.88;88.10
42603;BME280;28233;55.748;48.752;2023-02-12T01:06:38;99113.38;;;-6.87;88.54
42603;BME280;28233;55.748;48.752;2023-02-12T01:08:41;99115.63;;;-6.84;88.88
42603;BME280;28233;55.748;48.752;2023-02-12T01:10:44;99119.91;;;-6.83;89.23
42603;BME280;28233;55.748;48.752;2023-02-12T01:12:47;99111.50;;;-6.79;88.34
42603;BME280;28233;55.748;48.752;2023-02-12T01:14:50;99109.19;;;-6.76;88.87
42603;BME280;28233;55.748;48.752;2023-02-12T01:16:52;99116.69;;;-6.66;88.50
42603;BME280;28233;55.748;48.752;2023-02-12T01:18:55;99111.41;;;-6.73;88.96
42603;BME280;28233;55.748;48.752;2023-02-12T01:20:57;99107.72;;;-6.72;88.67
42603;BME280;28233;55.748;48.752;2023-02-12T01:23:00;99109.56;;;-6.72;88.34
42603;BME280;28233;55.748;48.752;2023-02-12T01:25:06;99104.66;;;-6.75;88.64
42603;BME280;28233;55.748;48.752;2023-02-12T01:27:08;99097.69;;;-6.76;88.68
42603;BME280;28233;55.748;48.752;2023-02-12T01:29:11;99088.56;;;-6.69;88.90
42603;BME280;28233;55.748;48.752;2023-02-12T01:31:17;99089.16;;;-6.67;88.78
42603;BME280;28233;55.748;48.752;2023-02-12T01:33:20;99095.09;;;-6.65;88.65
42603;BME280;28233;55.748;48.752;2023-02-12T01:35:22;99087.53;;;-6.68;88.39
42603;BME280;28233;55.748;48.752;2023-02-12T01:37:25;99092.00;;;-6.62;88.72
42603;BME280;28233;55.748;48.752;2023-02-12T01:39:28;99085.69;;;-6.67;88.50
42603;BME280;28233;55.748;48.752;2023-02-12T01:41:33;99081.22;;;-6.73;88.96
42603;BME280;28233;55.748;48.752;2023-02-12T01:43:38;99079.94;;;-6.71;88.46
42603;BME280;28233;55.748;48.752;2023-02-12T01:45:49;99088.81;;;-6.52;88.68
42603;BME280;28233;55.748;48.752;2023-02-12T01:47:55;99089.47;;;-6.56;88.07
42603;BME280;28233;55.748;48.752;2023-02-12T01:49:58;99080.28;;;-6.61;88.44
42603;BME280;28233;55.748;48.752;2023-02-12T01:52:05;99081.50;;;-6.63;88.80
42603;BME280;28233;55.748;48.752;2023-02-12T01:54:11;99084.41;;;-6.65;88.47
42603;BME280;28233;55.748;48.752;2023-02-12T01:56:15;99075.81;;;-6.67;88.29
42603;BME280;28233;55.748;48.752;2023-02-12T01:58:18;99071.81;;;-6.57;89.47
42603;BME280;28233;55.748;48.752;2023-02-12T02:00:23;99078.56;;;-6.55;89.22
42603;BME280;28233;55.748;48.752;2023-02-12T02:02:26;99079.25;;;-6.41;88.78
42603;BME280;28233;55.748;48.752;2023-02-12T02:04:39;99088.53;;;-6.44;88.00
42603;BME280;28233;55.748;48.752;2023-02-12T02:07:12;99074.94;;;-6.42;87.78
42603;BME280;28233;55.748;48.752;2023-02-12T02:09:17;99078.06;;;-6.45;87.50
42603;BME280;28233;55.748;48.752;2023-02-12T02:11:20;99082.44;;;-6.51;87.76
42603;BME280;28233;55.748;48.752;2023-02-12T02:13:42;99080.38;;;-6.49;88.21
42603;BME280;28233;55.748;48.752;2023-02-12T02:16:25;99078.50;;;-6.48;87.15
42603;BME280;28233;55.748;48.752;2023-02-12T02:18:34;99069.69;;;-6.49;88.24
42603;BME280;28233;55.748;48.752;2023-02-12T02:20:53;99060.81;;;-6.49;87.70
42603;BME280;28233;55.748;48.752;2023-02-12T02:35:31;99047.13;;;-6.78;88.51
42603;BME280;28233;55.748;48.752;2023-02-12T02:37:44;99047.53;;;-6.74;88.46
42603;BME280;28233;55.748;48.752;2023-02-12T02:42:00;99055.19;;;-6.60;89.24
42603;BME280;28233;55.748;48.752;2023-02-12T02:44:26;99046.28;;;-6.53;88.13
42603;BME280;28233;55.748;48.752;2023-02-12T02:46:33;99031.44;;;-6.68;87.61
42603;BME280;28233;55.748;48.752;2023-02-12T02:48:47;99038.84;;;-6.70;87.90
42603;BME280;28233;55.748;48.752;2023-02-12T02:50:56;99026.97;;;-6.74;88.50
42603;BME280;28233;55.748;48.752;2023-02-12T02:53:13;99024.16;;;-6.79;88.41
42603;BME280;28233;55.748;48.752;2023-02-12T02:55:19;99020.66;;;-6.79;88.80
42603;BME280;28233;55.748;48.752;2023-02-12T02:57:28;99016.50;;;-6.75;88.34
42603;BME280;28233;55.748;48.752;2023-02-12T02:59:37;99026.44;;;-6.83;88.13
42603;BME280;28233;55.748;48.752;2023-02-12T03:04:05;99008.84;;;-6.90;88.59
42603;BME280;28233;55.748;48.752;2023-02-12T03:08:30;98998.50;;;-7.05;88.43
42603;BME280;28233;55.748;48.752;2023-02-12T03:10:39;99007.63;;;-6.94;89.65
42603;BME280;28233;55.748;48.752;2023-02-12T03:15:34;99004.28;;;-7.08;88.63
42603;BME280;28233;55.748;48.752;2023-02-12T03:17:39;98997.75;;;-7.12;88.93
42603;BME280;28233;55.748;48.752;2023-02-12T03:19:49;99004.72;;;-7.11;89.14
42603;BME280;28233;55.748;48.752;2023-02-12T03:21:59;99004.06;;;-7.07;88.96
42603;BME280;28233;55.748;48.752;2023-02-12T03:24:17;99002.22;;;-7.06;88.95
42603;BME280;28233;55.748;48.752;2023-02-12T03:26:49;98996.25;;;-7.08;89.00
42603;BME280;28233;55.748;48.752;2023-02-12T03:28:53;98995.09;;;-7.12;88.61
42603;BME280;28233;55.748;48.752;2023-02-12T03:33:58;98993.97;;;-7.05;89.62
42603;BME280;28233;55.748;48.752;2023-02-12T03:36:14;99004.22;;;-7.02;89.70
42603;BME280;28233;55.748;48.752;2023-02-12T03:38:33;99010.22;;;-7.06;88.81
42603;BME280;28233;55.748;48.752;2023-02-12T03:40:41;99002.06;;;-7.11;89.38
42603;BME280;28233;55.748;48.752;2023-02-12T03:42:55;99003.09;;;-7.12;89.56
42603;BME280;28233;55.748;48.752;2023-02-12T03:50:21;98999.59;;;-7.13;89.87
42603;BME280;28233;55.748;48.752;2023-02-12T03:52:27;98999.38;;;-7.11;89.91
42603;BME280;28233;55.748;48.752;2023-02-12T03:54:30;98998.13;;;-7.09;90.37
42603;BME280;28233;55.748;48.752;2023-02-12T03:56:53;98994.53;;;-6.96;90.01
42603;BME280;28233;55.748;48.752;2023-02-12T03:58:57;98993.03;;;-6.92;89.89
42603;BME280;28233;55.748;48.752;2023-02-12T04:01:00;98992.91;;;-6.78;89.65
42603;BME280;28233;55.748;48.752;2023-02-12T04:03:04;99003.53;;;-6.72;89.14
42603;BME280;28233;55.748;48.752;2023-02-12T04:05:20;98998.69;;;-6.63;88.95
42603;BME280;28233;55.748;48.752;2023-02-12T04:07:24;99000.31;;;-6.62;89.16
42603;BME280;28233;55.748;48.752;2023-02-12T04:09:27;98992.16;;;-6.67;88.44
42603;BME280;28233;55.748;48.752;2023-02-12T04:14:09;98989.03;;;-6.64;89.20
42603;BME280;28233;55.748;48.752;2023-02-12T04:16:32;98997.72;;;-6.69;88.80
42603;BME280;28233;55.748;48.752;2023-02-12T04:18:46;98996.69;;;-6.68;89.04
42603;BME280;28233;55.748;48.752;2023-02-12T04:21:05;99001.19;;;-6.68;89.33
42603;BME280;28233;55.748;48.752;2023-02-12T04:23:48;98997.19;;;-6.59;88.78
42603;BME280;28233;55.748;48.752;2023-02-12T04:26:04;98988.22;;;-6.65;88.55
42603;BME280;28233;55.748;48.752;2023-02-12T04:33:22;98992.53;;;-6.45;88.79
42603;BME280;28233;55.748;48.752;2023-02-12T04:35:33;98981.22;;;-6.47;88.09
42603;BME280;28233;55.748;48.752;2023-02-12T04:37:50;98985.97;;;-6.49;87.93
42603;BME280;28233;55.748;48.752;2023-02-12T04:39:54;98978.47;;;-6.41;88.21
42603;BME280;28233;55.748;48.752;2023-02-12T04:42:00;98979.88;;;-6.38;87.69
42603;BME280;28233;55.748;48.752;2023-02-12T04:44:14;98978.03;;;-6.38;87.59
42603;BME280;28233;55.748;48.752;2023-02-12T04:46:17;98974.59;;;-6.26;87.93
42603;BME280;28233;55.748;48.752;2023-02-12T04:48:20;98970.44;;;-6.22;87.20
42603;BME280;28233;55.748;48.752;2023-02-12T04:50:23;98968.13;;;-6.19;87.09
42603;BME280;28233;55.748;48.752;2023-02-12T04:52:26;98973.72;;;-6.20;86.44
42603;BME280;28233;55.748;48.752;2023-02-12T04:54:29;98971.13;;;-6.27;86.63
42603;BME280;28233;55.748;48.752;2023-02-12T04:56:31;98973.41;;;-6.30;86.65
42603;BME280;28233;55.748;48.752;2023-02-12T04:58:34;98974.13;;;-6.23;87.09
42603;BME280;28233;55.748;48.752;2023-02-12T05:00:39;98965.59;;;-6.13;86.86
42603;BME280;28233;55.748;48.752;2023-02-12T05:02:41;98974.78;;;-6.09;85.89
42603;BME280;28233;55.748;48.752;2023-02-12T05:04:44;98966.53;;;-6.08;86.40
42603;BME280;28233;55.748;48.752;2023-02-12T05:06:47;98966.31;;;-6.06;85.48
42603;BME280;28233;55.748;48.752;2023-02-12T05:08:52;98971.16;;;-6.15;84.61
42603;BME280;28233;55.748;48.752;2023-02-12T05:10:54;98969.09;;;-6.13;85.04
42603;BME280;28233;55.748;48.752;2023-02-12T05:12:57;98970.41;;;-6.04;85.72
42603;BME280;28233;55.748;48.752;2023-02-12T05:14:59;98962.38;;;-6.04;85.07
42603;BME280;28233;55.748;48.752;2023-02-12T05:17:04;98963.53;;;-6.00;84.20
42603;BME280;28233;55.748;48.752;2023-02-12T05:19:07;98962.59;;;-5.93;84.17
42603;BME280;28233;55.748;48.752;2023-02-12T05:21:11;98962.28;;;-5.97;83.72
42603;BME280;28233;55.748;48.752;2023-02-12T05:23:14;98962.50;;;-5.99;83.76
42603;BME280;28233;55.748;48.752;2023-02-12T05:25:16;98956.31;;;-6.11;83.29
42603;BME280;28233;55.748;48.752;2023-02-12T05:27:19;98953.84;;;-6.12;83.61
42603;BME280;28233;55.748;48.752;2023-02-12T05:29:22;98966.78;;;-5.98;83.50
42603;BME280;28233;55.748;48.752;2023-02-12T05:31:25;98961.91;;;-5.89;83.34
42603;BME280;28233;55.748;48.752;2023-02-12T05:33:28;98963.91;;;-5.84;82.13
42603;BME280;28233;55.748;48.752;2023-02-12T05:35:33;98971.47;;;-5.81;82.34
42603;BME280;28233;55.748;48.752;2023-02-12T05:37:36;98978.44;;;-5.92;81.62
42603;BME280;28233;55.748;48.752;2023-02-12T05:39:39;98965.41;;;-5.88;81.81
42603;BME280;28233;55.748;48.752;2023-02-12T05:41:42;98967.38;;;-5.96;80.70
42603;BME280;28233;55.748;48.752;2023-02-12T05:43:45;98976.09;;;-6.00;80.43
42603;BME280;28233;55.748;48.752;2023-02-12T05:45:50;98991.47;;;-5.96;81.71
42603;BME280;28233;55.748;48.752;2023-02-12T05:47:56;98981.91;;;-5.91;80.87
42603;BME280;28233;55.748;48.752;2023-02-12T05:49:59;98991.56;;;-5.90;81.05
42603;BME280;28233;55.748;48.752;2023-02-12T05:52:01;98983.22;;;-5.82;81.15
42603;BME280;28233;55.748;48.752;2023-02-12T05:54:05;98982.41;;;-5.83;81.14
42603;BME280;28233;55.748;48.752;2023-02-12T05:56:17;98969.38;;;-5.79;81.05
42603;BME280;28233;55.748;48.752;2023-02-12T05:58:20;98965.94;;;-5.68;81.06
42603;BME280;28233;55.748;48.752;2023-02-12T06:00:23;98968.25;;;-5.60;80.38
42603;BME280;28233;55.748;48.752;2023-02-12T06:02:26;98970.25;;;-5.55;80.30
42603;BME280;28233;55.748;48.752;2023-02-12T06:04:30;98964.56;;;-5.59;79.87
42603;BME280;28233;55.748;48.752;2023-02-12T06:06:33;98962.81;;;-5.53;80.02
42603;BME280;28233;55.748;48.752;2023-02-12T06:08:36;98956.63;;;-5.54;80.35
42603;BME280;28233;55.748;48.752;2023-02-12T06:10:39;98956.31;;;-5.57;79.89
42603;BME280;28233;55.748;48.752;2023-02-12T06:12:42;98948.84;;;-5.55;80.40
42603;BME280;28233;55.748;48.752;2023-02-12T06:14:45;98946.41;;;-5.45;80.58
42603;BME280;28233;55.748;48.752;2023-02-12T06:16:50;98952.59;;;-5.33;80.29
42603;BME280;28233;55.748;48.752;2023-02-12T06:18:54;98953.06;;;-5.24;79.68
42603;BME280;28233;55.748;48.752;2023-02-12T06:20:56;98947.25;;;-5.21;79.46
42603;BME280;28233;55.748;48.752;2023-02-12T06:22:59;98952.72;;;-5.16;78.48
42603;BME280;28233;55.748;48.752;2023-02-12T06:25:03;98960.16;;;-5.18;78.58
42603;BME280;28233;55.748;48.752;2023-02-12T06:27:06;98960.75;;;-5.04;79.21
42603;BME280;28233;55.748;48.752;2023-02-12T06:29:09;98958.31;;;-5.05;78.00
42603;BME280;28233;55.748;48.752;2023-02-12T06:31:24;98948.41;;;-5.05;78.22
42603;BME280;28233;55.748;48.752;2023-02-12T06:33:27;98947.44;;;-4.99;77.80
42603;BME280;28233;55.748;48.752;2023-02-12T06:35:30;98952.13;;;-5.06;76.96
42603;BME280;28233;55.748;48.752;2023-02-12T06:37:32;98955.97;;;-5.02;77.72
42603;BME280;28233;55.748;48.752;2023-02-12T06:39:38;98956.06;;;-4.97;77.46
42603;BME280;28233;55.748;48.752;2023-02-12T06:41:41;98953.38;;;-4.85;77.25
42603;BME280;28233;55.748;48.752;2023-02-12T06:43:45;98941.16;;;-4.81;76.78
42603;BME280;28233;55.748;48.752;2023-02-12T06:45:47;98940.09;;;-4.80;76.57
42603;BME280;28233;55.748;48.752;2023-02-12T06:47:50;98945.19;;;-4.67;75.78
42603;BME280;28233;55.748;48.752;2023-02-12T06:49:53;98940.88;;;-4.56;75.95
42603;BME280;28233;55.748;48.752;2023-02-12T06:51:56;98949.91;;;-4.45;75.12
42603;BME280;28233;55.748;48.752;2023-02-12T06:53:58;98934.78;;;-4.51;74.40
42603;BME280;28233;55.748;48.752;2023-02-12T06:56:06;98951.47;;;-4.49;73.94
42603;BME280;28233;55.748;48.752;2023-02-12T06:58:12;98947.84;;;-4.55;74.39
42603;BME280;28233;55.748;48.752;2023-02-12T07:00:15;98963.41;;;-4.40;74.71
42603;BME280;28233;55.748;48.752;2023-02-12T07:02:18;98962.00;;;-4.31;74.63
42603;BME280;28233;55.748;48.752;2023-02-12T07:04:20;98959.44;;;-4.26;74.43
42603;BME280;28233;55.748;48.752;2023-02-12T07:06:24;98964.91;;;-4.20;72.99
42603;BME280;28233;55.748;48.752;2023-02-12T07:08:27;98960.00;;;-4.23;73.61
42603;BME280;28233;55.748;48.752;2023-02-12T07:10:30;98955.47;;;-4.23;73.58
42603;BME280;28233;55.748;48.752;2023-02-12T07:12:32;98944.28;;;-4.32;73.82
42603;BME280;28233;55.748;48.752;2023-02-12T07:14:35;98953.69;;;-4.17;73.89
42603;BME280;28233;55.748;48.752;2023-02-12T07:16:38;98947.25;;;-4.16;73.15
42603;BME280;28233;55.748;48.752;2023-02-12T07:18:42;98950.06;;;-4.11;72.52
42603;BME280;28233;55.748;48.752;2023-02-12T07:20:45;98945.06;;;-4.19;72.08
42603;BME280;28233;55.748;48.752;2023-02-12T07:22:48;98947.97;;;-4.21;72.23
42603;BME280;28233;55.748;48.752;2023-02-12T07:24:50;98946.34;;;-4.22;72.33
42603;BME280;28233;55.748;48.752;2023-02-12T07:26:53;98938.75;;;-4.13;72.02
42603;BME280;28233;55.748;48.752;2023-02-12T07:28:56;98946.22;;;-4.15;71.06
42603;BME280;28233;55.748;48.752;2023-02-12T07:31:06;98953.28;;;-4.09;71.39
42603;BME280;28233;55.748;48.752;2023-02-12T07:33:10;98963.16;;;-4.27;71.29
42603;BME280;28233;55.748;48.752;2023-02-12T07:35:13;98970.22;;;-4.37;71.50
42603;BME280;28233;55.748;48.752;2023-02-12T07:37:15;98977.88;;;-4.29;72.92
42603;BME280;28233;55.748;48.752;2023-02-12T07:39:23;98958.69;;;-4.21;72.60
42603;BME280;28233;55.748;48.752;2023-02-12T07:41:31;98960.78;;;-4.11;72.21
42603;BME280;28233;55.748;48.752;2023-02-12T07:43:34;98962.31;;;-4.15;71.68
42603;BME280;28233;55.748;48.752;2023-02-12T07:45:37;98964.94;;;-4.04;71.90
42603;BME280;28233;55.748;48.752;2023-02-12T07:47:40;98962.19;;;-3.92;72.12
42603;BME280;28233;55.748;48.752;2023-02-12T07:49:42;98951.84;;;-4.00;70.96
42603;BME280;28233;55.748;48.752;2023-02-12T07:51:46;98955.59;;;-4.01;70.34
42603;BME280;28233;55.748;48.752;2023-02-12T07:53:49;98963.41;;;-3.99;70.76
42603;BME280;28233;55.748;48.752;2023-02-12T07:55:52;98967.56;;;-3.92;71.17
42603;BME280;28233;55.748;48.752;2023-02-12T07:57:55;98969.53;;;-3.87;70.34
42603;BME280;28233;55.748;48.752;2023-02-12T07:59:58;98971.41;;;-3.88;70.77
42603;BME280;28233;55.748;48.752;2023-02-12T08:02:01;98963.25;;;-3.93;70.27
42603;BME280;28233;55.748;48.752;2023-02-12T08:04:06;98971.94;;;-3.74;70.68
42603;BME280;28233;55.748;48.752;2023-02-12T08:06:21;98965.19;;;-3.59;70.01
42603;BME280;28233;55.748;48.752;2023-02-12T08:08:25;98961.44;;;-3.58;69.33
42603;BME280;28233;55.748;48.752;2023-02-12T08:10:28;98951.19;;;-3.62;69.31
42603;BME280;28233;55.748;48.752;2023-02-12T08:12:33;98942.78;;;-3.65;69.17
42603;BME280;28233;55.748;48.752;2023-02-12T08:14:36;98943.94;;;-3.61;69.92
42603;BME280;28233;55.748;48.752;2023-02-12T08:16:39;98940.25;;;-3.72;68.85
42603;BME280;28233;55.748;48.752;2023-02-12T08:18:44;98958.66;;;-3.80;69.30
42603;BME280;28233;55.748;48.752;2023-02-12T08:20:47;98962.22;;;-3.75;70.49
42603;BME280;28233;55.748;48.752;2023-02-12T08:22:49;98948.63;;;-3.85;68.78
42603;BME280;28233;55.748;48.752;2023-02-12T08:24:52;98952.28;;;-3.91;70.07
42603;BME280;28233;55.748;48.752;2023-02-12T08:26:55;98948.06;;;-3.87;70.53
42603;BME280;28233;55.748;48.752;2023-02-12T08:29:03;98950.75;;;-3.70;69.74
42603;BME280;28233;55.748;48.752;2023-02-12T08:31:12;98935.09;;;-3.62;69.63
42603;BME280;28233;55.748;48.752;2023-02-12T08:33:15;98932.31;;;-3.67;69.33
42603;BME280;28233;55.748;48.752;2023-02-12T08:35:18;98945.31;;;-3.58;68.71
42603;BME280;28233;55.748;48.752;2023-02-12T08:37:21;98938.97;;;-3.69;68.13
42603;BME280;28233;55.748;48.752;2023-02-12T08:39:25;98944.31;;;-3.86;68.29
42603;BME280;28233;55.748;48.752;2023-02-12T08:41:30;98930.66;;;-3.68;70.11
42603;BME280;28233;55.748;48.752;2023-02-12T08:43:32;98923.84;;;-3.58;69.24
42603;BME280;28233;55.748;48.752;2023-02-12T08:45:35;98935.16;;;-3.40;68.89
42603;BME280;28233;55.748;48.752;2023-02-12T08:47:38;98935.22;;;-3.34;67.75
42603;BME280;28233;55.748;48.752;2023-02-12T08:49:40;98931.16;;;-3.37;67.28
42603;BME280;28233;55.748;48.752;2023-02-12T08:51:46;98937.97;;;-3.29;66.78
42603;BME280;28233;55.748;48.752;2023-02-12T08:53:55;98939.78;;;-3.52;67.17
42603;BME280;28233;55.748;48.752;2023-02-12T08:55:58;98933.28;;;-3.56;68.53
42603;BME280;28233;55.748;48.752;2023-02-12T08:58:00;98925.72;;;-3.59;68.23
42603;BME280;28233;55.748;48.752;2023-02-12T09:00:04;98927.91;;;-3.73;68.63
42603;BME280;28233;55.748;48.752;2023-02-12T09:02:09;98920.44;;;-3.71;69.59
42603;BME280;28233;55.748;48.752;2023-02-12T09:04:18;98931.88;;;-3.75;68.99
42603;BME280;28233;55.748;48.752;2023-02-12T09:06:24;98937.41;;;-3.65;69.82
42603;BME280;28233;55.748;48.752;2023-02-12T09:08:26;98930.94;;;-3.52;70.12
42603;BME280;28233;55.748;48.752;2023-02-12T09:10:29;98922.16;;;-3.48;70.42
42603;BME280;28233;55.748;48.752;2023-02-12T09:12:32;98931.16;;;-3.54;70.65
42603;BME280;28233;55.748;48.752;2023-02-12T09:14:35;98937.25;;;-3.75;70.59
42603;BME280;28233;55.748;48.752;2023-02-12T09:16:42;98937.19;;;-3.80;71.86
42603;BME280;28233;55.748;48.752;2023-02-12T09:18:47;98940.59;;;-3.68;72.38
42603;BME280;28233;55.748;48.752;2023-02-12T09:20:49;98941.25;;;-3.78;70.50
42603;BME280;28233;55.748;48.752;2023-02-12T09:22:52;98928.78;;;-3.84;71.70
42603;BME280;28233;55.748;48.752;2023-02-12T09:24:55;98956.06;;;-3.75;70.71
42603;BME280;28233;55.748;48.752;2023-02-12T09:26:58;98935.22;;;-3.85;70.66
42603;BME280;28233;55.748;48.752;2023-02-12T09:29:02;98940.19;;;-3.77;71.28
42603;BME280;28233;55.748;48.752;2023-02-12T09:31:07;98947.41;;;-3.77;71.11
42603;BME280;28233;55.748;48.752;2023-02-12T09:33:10;98942.72;;;-3.70;71.57
42603;BME280;28233;55.748;48.752;2023-02-12T09:35:13;98938.72;;;-3.68;72.40
42603;BME280;28233;55.748;48.752;2023-02-12T09:37:16;98943.28;;;-3.85;70.61
42603;BME280;28233;55.748;48.752;2023-02-12T09:39:18;98942.47;;;-3.86;73.27
42603;BME280;28233;55.748;48.752;2023-02-12T09:43:52;98945.22;;;-3.97;73.33
42603;BME280;28233;55.748;48.752;2023-02-12T09:46:04;98941.78;;;-4.21;72.02
42603;BME280;28233;55.748;48.752;2023-02-12T09:52:53;98948.00;;;-4.33;74.72
42603;BME280;28233;55.748;48.752;2023-02-12T09:54:59;98935.56;;;-4.39;75.34
42603;BME280;28233;55.748;48.752;2023-02-12T09:57:10;98947.66;;;-4.25;75.39
42603;BME280;28233;55.748;48.752;2023-02-12T09:59:33;98947.97;;;-4.21;74.41
42603;BME280;28233;55.748;48.752;2023-02-12T10:01:36;98945.63;;;-4.17;73.89
42603;BME280;28233;55.748;48.752;2023-02-12T10:03:40;98934.66;;;-4.16;74.07
42603;BME280;28233;55.748;48.752;2023-02-12T10:06:02;98931.88;;;-4.21;73.14
42603;BME280;28233;55.748;48.752;2023-02-12T10:09:44;98932.06;;;-4.11;74.46
42603;BME280;28233;55.748;48.752;2023-02-12T10:11:56;98922.66;;;-4.13;73.63
42603;BME280;28233;55.748;48.752;2023-02-12T10:18:43;98920.81;;;-4.25;75.91
42603;BME280;28233;55.748;48.752;2023-02-12T10:27:50;98919.59;;;-4.17;73.92
42603;BME280;28233;55.748;48.752;2023-02-12T10:29:54;98921.47;;;-4.17;74.36
42603;BME280;28233;55.748;48.752;2023-02-12T10:32:22;98932.06;;;-4.11;75.00
42603;BME280;28233;55.748;48.752;2023-02-12T10:34:31;98934.88;;;-3.89;75.86
42603;BME280;28233;55.748;48.752;2023-02-12T10:36:48;98937.91;;;-3.85;74.13
42603;BME280;28233;55.748;48.752;2023-02-12T10:38:54;98942.69;;;-3.87;74.24
42603;BME280;28233;55.748;48.752;2023-02-12T10:40:59;98945.28;;;-3.92;74.22
42603;BME280;28233;55.748;48.752;2023-02-12T10:43:03;98945.75;;;-3.95;72.87
42603;BME280;28233;55.748;48.752;2023-02-12T10:45:15;98943.00;;;-4.00;73.37
42603;BME280;28233;55.748;48.752;2023-02-12T10:47:23;98939.56;;;-3.96;73.61
42603;BME280;28233;55.748;48.752;2023-02-12T10:49:28;98932.56;;;-4.14;73.39
42603;BME280;28233;55.748;48.752;2023-02-12T10:51:44;98937.19;;;-4.09;74.43
42603;BME280;28233;55.748;48.752;2023-02-12T10:53:50;98936.00;;;-4.01;73.41
42603;BME280;28233;55.748;48.752;2023-02-12T10:58:22;98939.91;;;-4.21;74.16
42603;BME280;28233;55.748;48.752;2023-02-12T11:00:32;98938.25;;;-4.10;75.26
42603;BME280;28233;55.748;48.752;2023-02-12T11:02:35;98927.34;;;-4.20;73.70
42603;BME280;28233;55.748;48.752;2023-02-12T11:04:38;98923.69;;;-4.43;72.98
42603;BME280;28233;55.748;48.752;2023-02-12T11:07:02;98937.13;;;-4.26;75.18
42603;BME280;28233;55.748;48.752;2023-02-12T11:09:29;98943.16;;;-4.48;74.01
42603;BME280;28233;55.748;48.752;2023-02-12T11:11:37;98949.09;;;-4.46;75.45
42603;BME280;28233;55.748;48.752;2023-02-12T11:15:56;98941.41;;;-4.13;76.87
42603;BME280;28233;55.748;48.752;2023-02-12T11:18:03;98938.69;;;-4.30;74.74
42603;BME280;28233;55.748;48.752;2023-02-12T11:22:21;98948.22;;;-4.22;77.82
42603;BME280;28233;55.748;48.752;2023-02-12T11:24:35;98951.94;;;-4.23;76.60
42603;BME280;28233;55.748;48.752;2023-02-12T11:26:38;98947.56;;;-4.30;76.40
42603;BME280;28233;55.748;48.752;2023-02-12T11:29:01;98958.94;;;-4.22;76.14
42603;BME280;28233;55.748;48.752;2023-02-12T11:31:28;98948.41;;;-4.12;76.51
42603;BME280;28233;55.748;48.752;2023-02-12T11:33:35;98945.44;;;-3.99;76.90
42603;BME280;28233;55.748;48.752;2023-02-12T11:35:48;98943.78;;;-4.00;75.90
42603;BME280;28233;55.748;48.752;2023-02-12T11:37:54;98945.22;;;-3.97;75.77
42603;BME280;28233;55.748;48.752;2023-02-12T11:39:57;98949.56;;;-4.08;73.99
42603;BME280;28233;55.748;48.752;2023-02-12T11:42:05;98957.78;;;-4.27;75.19
42603;BME280;28233;55.748;48.752;2023-02-12T11:44:25;98958.28;;;-4.30;76.04
42603;BME280;28233;55.748;48.752;2023-02-12T11:46:28;98956.41;;;-4.29;75.53
42603;BME280;28233;55.748;48.752;2023-02-12T11:48:34;98947.69;;;-4.36;76.04
42603;BME280;28233;55.748;48.752;2023-02-12T11:50:45;98960.00;;;-4.23;76.73
42603;BME280;28233;55.748;48.752;2023-02-12T11:52:51;98949.50;;;-4.25;75.52
42603;BME280;28233;55.748;48.752;2023-02-12T11:54:58;98949.22;;;-4.40;75.57
42603;BME280;28233;55.748;48.752;2023-02-12T11:57:01;98958.63;;;-4.38;76.20
42603;BME280;28233;55.748;48.752;2023-02-12T11:59:20;98948.41;;;-4.41;75.83
42603;BME280;28233;55.748;48.752;2023-02-12T12:01:31;98949.50;;;-4.54;77.08
42603;BME280;28233;55.748;48.752;2023-02-12T12:03:59;98951.81;;;-4.57;76.73
42603;BME280;28233;55.748;48.752;2023-02-12T12:06:28;98949.81;;;-4.50;77.61